Duncanville, Illinois
Current Conditions -  °F | °C
As of 8:55 AM on Sunday 23 Nov 2014 (Local Time) from KRSV Reporting Station
Overcast Overcast  
Wind Chill: 56°   Ceiling: 2200
Heat Index: 56°   Visibility: 10mi
Dew Point: 43°   Wind: 14mph
Humidity: 62%   Direction: 160°SSE
Pressure: 29.82"   Gusts: NA
Location:  39.0131°N, 87.7657°W
Report Text: KRSV 231455Z AUTO 16012KT 10SM OVC022 13/06 A2982 RMK AO2 T01330061
Loading
Personal Weather Stations






























Interactive Weather Map New forecast layout! Learn more

10-Day Weather Forecast

Advertisements
Track Severe Weather on mobile